Time;durP1;ratioP1;P1;durP2;ratioP2;P2;SDS_P1;SDS_P2;PMS_P1;PMS_P2;Temp;Humidity;BMP_temperature;BMP_pressure;BME280_temperature;BME280_humidity;BME280_pressure;Samples;Min_cycle;Max_cycle;Signal;HPM_P1;HPM_P2
2021/04/07 00:00:50;;;;;;;7.30;1.50;;;;;;;-0.14;84.54;100158.91;115834;1209;62910;-77
2021/04/07 00:03:17;;;;;;;3.80;1.10;;;;;;;-0.16;84.70;100178.22;115801;1209;62236;-76
2021/04/07 00:05:44;;;;;;;2.50;1.27;;;;;;;-0.19;84.46;100160.20;115762;1209;62839;-77
2021/04/07 00:08:11;;;;;;;7.35;1.95;;;;;;;-0.19;84.73;100168.87;115850;1208;62313;-76
2021/04/07 00:10:40;;;;;;;3.70;1.50;;;;;;;-0.19;84.99;100168.87;115855;1209;62143;-77
2021/04/07 00:13:09;;;;;;;5.07;1.90;;;;;;;-0.18;85.23;100175.73;115802;1208;63461;-78
2021/04/07 00:15:36;;;;;;;1.63;0.67;;;;;;;-0.21;85.24;100178.59;115823;1209;63567;-77
2021/04/07 00:18:04;;;;;;;3.13;1.00;;;;;;;-0.17;85.13;100176.55;115764;1209;62265;-77
2021/04/07 00:20:32;;;;;;;1.73;0.83;;;;;;;-0.18;84.98;100173.12;115817;1209;63057;-77
2021/04/07 00:22:59;;;;;;;1.97;1.00;;;;;;;-0.18;85.29;100156.66;115789;1209;62242;-76
2021/04/07 00:25:27;;;;;;;2.07;1.00;;;;;;;-0.19;84.96;100163.66;115822;1209;62370;-77
2021/04/07 00:27:58;;;;;;;2.33;1.23;;;;;;;-0.19;84.61;100152.38;115787;1209;62232;-77
2021/04/07 00:30:27;;;;;;;5.03;1.17;;;;;;;-0.19;84.90;100168.87;115810;1209;62627;-77
2021/04/07 00:32:54;;;;;;;5.43;1.60;;;;;;;-0.17;84.22;100164.37;115767;1209;62288;-77
2021/04/07 00:35:23;;;;;;;6.10;1.50;;;;;;;-0.16;83.87;100168.62;115771;1209;63624;-77
2021/04/07 00:37:50;;;;;;;3.90;1.25;;;;;;;-0.19;83.85;100166.27;115719;1209;62482;-77
2021/04/07 00:40:18;;;;;;;1.33;0.97;;;;;;;-0.22;83.88;100179.52;115810;1209;63418;-76
2021/04/07 00:42:47;;;;;;;2.83;0.93;;;;;;;-0.20;83.64;100172.41;115784;1209;62306;-77
2021/04/07 00:45:15;;;;;;;3.13;0.70;;;;;;;-0.19;83.79;100179.30;115806;1209;62522;-77
2021/04/07 00:47:42;;;;;;;10.37;1.30;;;;;;;-0.21;83.46;100175.98;115769;1209;62263;-77
2021/04/07 00:50:10;;;;;;;2.83;1.30;;;;;;;-0.22;84.17;100184.73;115856;1209;62350;-77
2021/04/07 00:52:37;;;;;;;3.63;1.10;;;;;;;-0.21;83.75;100181.19;115839;1209;63411;-77
2021/04/07 00:55:11;;;;;;;4.07;1.40;;;;;;;-0.21;84.14;100186.41;115837;1209;63190;-76
2021/04/07 00:57:43;;;;;;;3.57;1.50;;;;;;;-0.24;84.07;100195.27;115851;1209;63492;-77
2021/04/07 01:00:11;;;;;;;3.23;1.10;;;;;;;-0.22;83.87;100190.77;115819;1209;63452;-76
2021/04/07 01:02:39;;;;;;;3.60;0.95;;;;;;;-0.21;83.42;100194.22;115826;1209;62560;-77
2021/04/07 01:05:09;;;;;;;3.43;1.10;;;;;;;-0.22;83.59;100200.37;115782;1209;62353;-77
2021/04/07 01:07:36;;;;;;;2.87;0.63;;;;;;;-0.22;83.95;100189.94;115738;1209;64540;-76
2021/04/07 01:10:11;;;;;;;3.90;1.03;;;;;;;-0.25;83.17;100179.77;115811;1209;64323;-77
2021/04/07 01:12:38;;;;;;;6.35;1.43;;;;;;;-0.26;83.41;100191.95;115781;1209;62457;-76
2021/04/07 01:15:06;;;;;;;6.67;1.50;;;;;;;-0.25;82.77;100205.83;115832;1209;62231;-76
2021/04/07 01:17:34;;;;;;;2.97;1.20;;;;;;;-0.29;82.94;100186.16;115798;1209;63982;-76
2021/04/07 01:20:05;;;;;;;2.37;1.13;;;;;;;-0.34;82.85;100183.91;115806;1209;63145;-77
2021/04/07 01:22:33;;;;;;;4.03;1.70;;;;;;;-0.31;82.95;100198.48;115791;1209;63406;-77
2021/04/07 01:25:00;;;;;;;3.20;0.80;;;;;;;-0.30;83.47;100195.77;115795;1209;62396;-76
2021/04/07 01:27:27;;;;;;;3.77;1.57;;;;;;;-0.31;83.72;100194.09;115804;1209;62640;-76
2021/04/07 01:29:54;;;;;;;6.37;1.47;;;;;;;-0.32;83.79;100204.62;115824;1209;62600;-75
2021/04/07 01:32:20;;;;;;;3.47;1.10;;;;;;;-0.33;82.98;100182.13;115860;1209;62712;-75
2021/04/07 01:34:47;;;;;;;6.33;1.23;;;;;;;-0.34;83.01;100190.88;115801;1209;62344;-77
2021/04/07 01:37:15;;;;;;;2.55;1.25;;;;;;;-0.39;83.07;100208.65;115819;1209;62508;-76
2021/04/07 01:39:42;;;;;;;7.90;2.77;;;;;;;-0.40;83.19;100200.01;115780;1209;62715;-76
2021/04/07 01:42:10;;;;;;;6.33;1.50;;;;;;;-0.39;83.39;100206.05;115819;1209;62836;-77
2021/04/07 01:44:39;;;;;;;8.10;1.90;;;;;;;-0.42;83.51;100197.52;115780;1209;62447;-76
2021/04/07 01:47:07;;;;;;;2.55;1.40;;;;;;;-0.41;83.32;100217.39;115820;1209;62284;-77
2021/04/07 01:49:35;;;;;;;3.50;0.80;;;;;;;-0.39;83.56;100208.65;115829;1209;62831;-77
2021/04/07 01:52:02;;;;;;;3.67;1.17;;;;;;;-0.38;82.97;100220.72;115836;1209;62261;-77
2021/04/07 01:54:28;;;;;;;4.67;1.67;;;;;;;-0.40;83.35;100207.83;115803;1209;63208;-77
2021/04/07 01:56:57;;;;;;;6.03;1.10;;;;;;;-0.45;83.57;100223.81;115817;1209;62240;-77
2021/04/07 01:59:26;;;;;;;2.57;0.93;;;;;;;-0.49;83.68;100217.17;115821;1209;62288;-77
2021/04/07 02:01:54;;;;;;;4.40;1.23;;;;;;;-0.53;83.58;100210.53;115796;1207;62311;-78
2021/04/07 02:04:21;;;;;;;3.30;1.33;;;;;;;-0.56;83.85;100207.31;115787;1209;62132;-78
2021/04/07 02:06:57;;;;;;;3.60;1.10;;;;;;;-0.58;83.76;100220.45;115779;1209;62586;-78
2021/04/07 02:09:25;;;;;;;4.87;1.30;;;;;;;-0.59;83.68;100218.80;115790;1209;62612;-77
2021/04/07 02:11:53;;;;;;;7.17;1.30;;;;;;;-0.60;83.67;100232.76;115811;1209;62406;-77
2021/04/07 02:14:25;;;;;;;4.87;1.37;;;;;;;-0.61;84.06;100215.48;115821;1209;62318;-77
2021/04/07 02:16:53;;;;;;;4.00;1.30;;;;;;;-0.61;84.41;100207.66;115792;1209;62323;-77
2021/04/07 02:19:22;;;;;;;9.67;1.77;;;;;;;-0.64;83.63;100223.51;115839;1209;62935;-77
2021/04/07 02:22:16;;;;;;;2.60;1.30;;;;;;;-0.66;84.13;100220.19;115792;1209;63576;-76
2021/04/07 02:24:45;;;;;;;3.37;1.20;;;;;;;-0.65;84.28;100214.87;115752;1209;62593;-76
2021/04/07 02:27:20;;;;;;;8.75;1.30;;;;;;;-0.63;84.29;100217.37;115828;1209;62654;-77
2021/04/07 02:29:50;;;;;;;7.23;1.27;;;;;;;-0.67;84.32;100216.76;115853;1209;62204;-77
2021/04/07 02:32:17;;;;;;;8.05;1.30;;;;;;;-0.67;83.85;100227.17;115831;1209;64219;-76
2021/04/07 02:34:44;;;;;;;15.20;1.43;;;;;;;-0.67;83.76;100208.13;115769;1209;64397;-77
2021/04/07 02:37:13;;;;;;;3.80;1.00;;;;;;;-0.70;83.87;100222.21;115813;1209;62375;-77
2021/04/07 02:39:41;;;;;;;4.60;1.50;;;;;;;-0.72;84.01;100229.30;115784;1209;62461;-77
2021/04/07 02:42:08;;;;;;;3.07;1.00;;;;;;;-0.77;84.07;100218.38;115831;1209;62376;-76
2021/04/07 02:44:39;;;;;;;3.03;1.17;;;;;;;-0.78;84.22;100224.55;115793;1209;63427;-76
2021/04/07 02:47:07;;;;;;;6.60;1.63;;;;;;;-0.83;84.35;100224.89;115783;1209;62339;-76
2021/04/07 02:49:34;;;;;;;8.25;1.60;;;;;;;-0.89;84.46;100227.13;115836;1209;63762;-77
2021/04/07 02:52:02;;;;;;;2.37;1.27;;;;;;;-0.89;83.90;100233.16;115764;1209;62282;-77
2021/04/07 02:54:28;;;;;;;2.50;1.17;;;;;;;-0.92;84.13;100238.57;115829;1209;62627;-76
2021/04/07 02:56:55;;;;;;;1.00;0.80;;;;;;;-0.93;84.74;100242.13;115838;1209;62142;-77
2021/04/07 02:59:22;;;;;;;2.47;1.20;;;;;;;-0.96;84.52;100236.30;115773;1209;62279;-76
2021/04/07 03:01:49;;;;;;;4.13;1.50;;;;;;;-0.96;84.68;100244.94;115811;1209;62515;-77
2021/04/07 03:04:16;;;;;;;7.07;1.40;;;;;;;-0.98;84.33;100236.41;115795;1209;62469;-77
2021/04/07 03:06:43;;;;;;;5.60;1.20;;;;;;;-0.95;84.41;100240.59;115717;1209;62335;-75
2021/04/07 03:09:11;;;;;;;7.50;1.80;;;;;;;-0.94;83.91;100244.84;115821;1209;62953;-76
2021/04/07 03:11:37;;;;;;;6.57;1.30;;;;;;;-0.95;84.18;100249.22;115684;1209;62624;-76
2021/04/07 03:14:05;;;;;;;6.20;1.30;;;;;;;-0.96;84.05;100250.15;115836;1209;62373;-76
2021/04/07 03:16:32;;;;;;;8.40;1.80;;;;;;;-0.97;84.15;100245.08;115811;1209;62906;-76
2021/04/07 03:18:59;;;;;;;5.17;1.33;;;;;;;-0.97;84.02;100248.50;115853;1209;62231;-76
2021/04/07 03:21:27;;;;;;;4.37;1.73;;;;;;;-1.01;83.87;100254.05;115751;1209;62347;-76
2021/04/07 03:23:53;;;;;;;3.90;1.43;;;;;;;-1.02;83.31;100245.38;115810;1209;62370;-77
2021/04/07 03:26:20;;;;;;;4.87;1.63;;;;;;;-1.07;84.06;100247.50;115840;1209;62355;-76
2021/04/07 03:28:47;;;;;;;3.73;1.67;;;;;;;-1.07;83.72;100248.33;115734;1209;62771;-78
2021/04/07 03:31:13;;;;;;;5.33;1.77;;;;;;;-1.07;83.42;100245.72;115738;1209;62242;-77
2021/04/07 03:33:40;;;;;;;6.70;1.73;;;;;;;-1.09;83.43;100246.78;115834;1209;63428;-77
2021/04/07 03:36:07;;;;;;;4.70;1.15;;;;;;;-1.09;83.53;100254.59;115835;1209;62278;-77
2021/04/07 03:38:34;;;;;;;4.63;1.87;;;;;;;-1.10;83.38;100256.38;115816;1209;62320;-77
2021/04/07 03:41:02;;;;;;;9.93;2.37;;;;;;;-1.09;82.76;100262.41;115833;1209;62280;-77
2021/04/07 03:43:28;;;;;;;3.63;0.93;;;;;;;-1.11;83.08;100259.08;115873;1209;62301;-77
2021/04/07 03:45:57;;;;;;;7.43;1.53;;;;;;;-1.10;82.85;100263.36;115771;1209;63052;-77
2021/04/07 03:48:29;;;;;;;4.43;1.73;;;;;;;-1.10;83.24;100263.36;115784;1209;62256;-77
2021/04/07 03:50:58;;;;;;;2.93;1.20;;;;;;;-1.12;82.24;100266.06;115822;1209;62954;-77
2021/04/07 03:53:24;;;;;;;2.60;1.20;;;;;;;-1.13;82.84;100268.77;115800;1209;62384;-77
2021/04/07 03:55:53;;;;;;;6.13;1.70;;;;;;;-1.12;82.89;100260.86;115812;1209;62230;-78
2021/04/07 03:58:21;;;;;;;2.43;0.90;;;;;;;-1.10;82.85;100265.96;115693;1209;62572;-78
2021/04/07 04:00:48;;;;;;;7.73;1.63;;;;;;;-1.07;82.29;100255.31;115687;1209;62345;-76
2021/04/07 04:03:15;;;;;;;1.43;1.00;;;;;;;-1.06;82.52;100270.00;115835;1209;62385;-74
2021/04/07 04:05:42;;;;;;;6.37;1.80;;;;;;;-1.05;81.92;100274.25;115774;1209;62936;-76
2021/04/07 04:08:09;;;;;;;3.25;1.70;;;;;;;-1.06;82.33;100262.20;115841;1209;62164;-76
2021/04/07 04:10:36;;;;;;;2.97;1.00;;;;;;;-1.07;82.04;100273.53;115807;1209;62434;-76
2021/04/07 04:13:05;;;;;;;4.47;1.30;;;;;;;-1.08;82.34;100271.89;115799;1209;62490;-75
2021/04/07 04:15:33;;;;;;;7.17;2.07;;;;;;;-1.08;82.24;100270.11;115678;1209;64353;-75
2021/04/07 04:18:00;;;;;;;4.97;1.90;;;;;;;-1.10;82.03;100261.58;115834;1209;62534;-76
2021/04/07 04:20:28;;;;;;;5.73;1.47;;;;;;;-1.09;82.57;100278.02;115774;1209;62970;-76
2021/04/07 04:22:55;;;;;;;5.77;1.90;;;;;;;-1.10;82.02;100284.18;115854;1209;62721;-76
2021/04/07 04:25:23;;;;;;;6.53;1.60;;;;;;;-1.09;82.23;100278.02;115781;1209;62496;-76
2021/04/07 04:27:50;;;;;;;7.03;2.53;;;;;;;-1.14;82.51;100280.95;115806;1209;62243;-76
2021/04/07 04:30:19;;;;;;;6.90;1.45;;;;;;;-1.12;82.97;100283.45;115825;1209;62316;-76
2021/04/07 04:32:46;;;;;;;6.33;1.87;;;;;;;-1.14;82.96;100285.34;115838;1209;62219;-76
2021/04/07 04:35:15;;;;;;;4.60;1.83;;;;;;;-1.13;82.80;100287.81;115834;1209;62251;-77
2021/04/07 04:37:42;;;;;;;9.47;2.17;;;;;;;-1.13;83.25;100282.60;115780;1209;62996;-76
2021/04/07 04:40:10;;;;;;;6.60;2.10;;;;;;;-1.13;83.26;100281.78;115893;1209;63189;-77
2021/04/07 04:42:38;;;;;;;4.43;1.67;;;;;;;-1.15;82.78;100284.48;115800;1209;62373;-76
2021/04/07 04:45:07;;;;;;;4.70;1.63;;;;;;;-1.16;82.74;100289.82;115800;1209;62395;-75
2021/04/07 04:47:34;;;;;;;9.00;2.95;;;;;;;-1.19;83.34;100287.42;115830;1209;64509;-76
2021/04/07 04:50:02;;;;;;;2.30;1.20;;;;;;;-1.21;83.37;100294.50;115830;1209;62418;-76
2021/04/07 04:52:29;;;;;;;8.33;2.30;;;;;;;-1.22;83.17;100290.25;115830;1209;62532;-76
2021/04/07 04:55:01;;;;;;;10.20;2.20;;;;;;;-1.22;83.90;100292.86;115787;1209;62895;-76
2021/04/07 04:57:27;;;;;;;9.50;1.75;;;;;;;-1.20;83.60;100296.18;115742;1209;62274;-76
2021/04/07 04:59:54;;;;;;;10.47;2.33;;;;;;;-1.24;83.33;100291.17;115772;1209;62279;-76
2021/04/07 05:02:20;;;;;;;9.75;2.50;;;;;;;-1.21;83.41;100294.50;115697;1209;62345;-76
2021/04/07 05:04:47;;;;;;;6.07;1.47;;;;;;;-1.21;83.30;100294.50;115762;1209;62399;-76
2021/04/07 05:07:14;;;;;;;9.85;1.95;;;;;;;-1.19;83.41;100303.03;115705;1209;62407;-76
2021/04/07 05:09:40;;;;;;;6.35;1.55;;;;;;;-1.15;83.29;100301.88;115876;1209;62631;-76
2021/04/07 05:12:07;;;;;;;2.40;1.30;;;;;;;-1.10;83.55;100307.61;115854;1207;62481;-75
2021/04/07 05:14:33;;;;;;;8.80;2.30;;;;;;;-1.05;83.36;100315.91;115759;1209;62724;-76
2021/04/07 05:17:00;;;;;;;8.37;2.20;;;;;;;-0.99;82.93;100315.47;115858;1209;62499;-76
2021/04/07 05:19:27;;;;;;;4.63;2.17;;;;;;;-0.91;83.13;100315.75;115740;1209;61999;-75
2021/04/07 05:22:06;;;;;;;8.00;2.37;;;;;;;-0.85;82.56;100328.34;115655;1209;62702;-75
2021/04/07 05:24:40;;;;;;;6.67;2.30;;;;;;;-0.77;82.37;100322.55;115216;1209;64310;-75
2021/04/07 05:27:06;;;;;;;7.93;1.90;;;;;;;-0.72;82.15;100324.82;115085;1209;64503;-76
2021/04/07 05:29:34;;;;;;;3.60;1.80;;;;;;;-0.66;81.57;100324.38;115220;1209;64383;-76
2021/04/07 05:32:00;;;;;;;5.73;1.90;;;;;;;-0.61;81.59;100324.89;115765;1209;62379;-76
2021/04/07 05:34:27;;;;;;;7.05;1.80;;;;;;;-0.57;81.63;100331.55;115816;1209;62322;-76
2021/04/07 05:36:54;;;;;;;9.33;2.27;;;;;;;-0.50;81.03;100331.92;115859;1209;62898;-76
2021/04/07 05:39:21;;;;;;;3.07;1.13;;;;;;;-0.45;81.11;100320.23;115786;1209;62313;-75
2021/04/07 05:41:48;;;;;;;5.83;1.77;;;;;;;-0.42;80.60;100325.20;115776;1209;62791;-75
2021/04/07 05:44:14;;;;;;;3.00;1.67;;;;;;;-0.37;80.61;100324.03;115841;1207;62377;-76
2021/04/07 05:46:41;;;;;;;6.43;2.67;;;;;;;-0.32;80.72;100341.00;115798;1209;63002;-76
2021/04/07 05:49:08;;;;;;;8.20;2.00;;;;;;;-0.27;80.72;100338.05;115798;1209;63276;-75
2021/04/07 05:51:34;;;;;;;12.60;2.43;;;;;;;-0.22;80.66;100326.31;115807;1209;62350;-75
2021/04/07 05:54:01;;;;;;;5.57;1.83;;;;;;;-0.16;79.65;100335.46;115851;1209;62193;-76
2021/04/07 05:56:31;;;;;;;5.17;2.03;;;;;;;-0.13;79.82;100337.83;115841;1209;62454;-76
2021/04/07 05:58:58;;;;;;;5.27;1.77;;;;;;;-0.09;80.15;100330.61;115830;1209;63656;-75
2021/04/07 06:01:25;;;;;;;9.07;2.27;;;;;;;-0.04;79.36;100344.16;115743;1209;63522;-76
2021/04/07 06:03:54;;;;;;;6.90;2.35;;;;;;;-0.02;78.98;100332.66;115862;1209;62611;-77
2021/04/07 06:06:22;;;;;;;8.67;2.30;;;;;;;-0.01;79.25;100329.09;115816;1209;62229;-75
2021/04/07 06:08:49;;;;;;;11.93;2.90;;;;;;;0.03;78.59;100339.30;115827;1209;62417;-75
2021/04/07 06:11:19;;;;;;;2.90;1.70;;;;;;;0.05;78.82;100348.67;115828;1209;62275;-78
2021/04/07 06:13:49;;;;;;;4.73;2.10;;;;;;;0.11;78.27;100335.16;115835;1209;62543;-78
2021/04/07 06:16:16;;;;;;;4.60;1.40;;;;;;;0.17;78.43;100344.28;115820;1209;62725;-78
2021/04/07 06:18:43;;;;;;;3.33;1.73;;;;;;;0.21;77.55;100343.11;115865;1209;64240;-79
2021/04/07 06:21:12;;;;;;;4.47;1.37;;;;;;;0.27;78.02;100360.08;115786;1209;62702;-78
2021/04/07 06:23:39;;;;;;;9.10;1.97;;;;;;;0.33;77.36;100342.17;115873;1209;62679;-79
2021/04/07 06:26:06;;;;;;;5.60;1.50;;;;;;;0.38;76.96;100349.64;115860;1209;62534;-79
2021/04/07 06:28:32;;;;;;;7.33;1.77;;;;;;;0.43;76.62;100352.75;115801;1209;62514;-79
2021/04/07 06:31:00;;;;;;;4.60;1.55;;;;;;;0.47;76.48;100355.93;115831;1209;62482;-78
2021/04/07 06:33:32;;;;;;;6.80;1.80;;;;;;;0.52;76.68;100359.03;115389;1209;64250;-78
2021/04/07 06:36:03;;;;;;;6.05;1.40;;;;;;;0.55;76.22;100356.17;115727;1209;62601;-79
2021/04/07 06:38:32;;;;;;;4.60;1.43;;;;;;;0.67;75.94;100357.02;115859;1209;62418;-79
2021/04/07 06:41:00;;;;;;;3.60;1.30;;;;;;;0.69;75.43;100365.56;115852;1209;62406;-79
2021/04/07 06:43:31;;;;;;;7.30;1.07;;;;;;;0.68;75.33;100361.27;115794;1209;62213;-79
2021/04/07 06:45:58;;;;;;;3.05;1.15;;;;;;;0.68;74.79;100367.34;115910;1209;62123;-78
2021/04/07 06:48:25;;;;;;;4.30;1.35;;;;;;;0.69;75.26;100371.60;115869;1209;62426;-77
2021/04/07 06:50:54;;;;;;;3.73;1.27;;;;;;;0.76;75.76;100374.56;115774;1209;62270;-79
2021/04/07 06:53:26;;;;;;;5.13;1.73;;;;;;;0.83;75.38;100367.08;115834;1209;62289;-79
2021/04/07 06:55:53;;;;;;;6.45;2.10;;;;;;;0.86;74.82;100375.52;115878;1209;62306;-79
2021/04/07 06:58:19;;;;;;;3.57;1.30;;;;;;;0.93;73.88;100373.25;115877;1209;62497;-79
2021/04/07 07:00:46;;;;;;;3.90;1.40;;;;;;;1.00;75.17;100372.66;115808;1209;62570;-79
2021/04/07 07:03:18;;;;;;;8.30;2.00;;;;;;;1.06;74.28;100366.09;115823;1209;63645;-79
2021/04/07 07:05:50;;;;;;;2.40;1.30;;;;;;;1.08;73.36;100372.03;115829;1209;62842;-80
2021/04/07 07:08:36;;;;;;;5.73;1.10;;;;;;;1.10;73.57;100362.29;115816;1209;62401;-78
2021/04/07 07:11:12;;;;;;;4.90;1.43;;;;;;;1.15;73.05;100377.63;115816;1209;62259;-80
2021/04/07 07:13:39;;;;;;;4.53;1.40;;;;;;;1.17;72.88;100379.16;115893;1209;63050;-79
2021/04/07 07:16:08;;;;;;;3.40;1.10;;;;;;;1.26;73.15;100385.42;115838;1209;62712;-79
2021/04/07 07:18:34;;;;;;;3.80;1.83;;;;;;;1.23;72.86;100393.50;115803;1209;62552;-80
2021/04/07 07:21:02;;;;;;;2.47;1.30;;;;;;;1.21;72.50;100391.03;115837;1208;62536;-79
2021/04/07 07:23:31;;;;;;;5.87;1.33;;;;;;;1.22;73.11;100371.77;115822;1209;62351;-78
2021/04/07 07:26:08;;;;;;;3.73;1.33;;;;;;;1.27;72.77;100373.19;115892;1209;62134;-80
2021/04/07 07:28:50;;;;;;;2.97;1.23;;;;;;;1.28;73.03;100369.64;115876;1209;62710;-80
2021/04/07 07:31:23;;;;;;;2.23;1.10;;;;;;;1.33;72.66;100375.31;115864;1209;62369;-78
2021/04/07 07:33:55;;;;;;;3.70;1.23;;;;;;;1.37;73.26;100380.16;115873;1208;62253;-79
2021/04/07 07:36:23;;;;;;;2.75;1.20;;;;;;;1.41;72.81;100380.75;115849;1209;62352;-79
2021/04/07 07:38:53;;;;;;;2.63;0.83;;;;;;;1.48;72.78;100381.09;115910;1207;62615;-79
2021/04/07 07:41:26;;;;;;;3.30;1.23;;;;;;;1.48;72.27;100384.52;115868;1209;62506;-79
2021/04/07 07:44:11;;;;;;;4.10;1.45;;;;;;;1.47;72.14;100393.33;115888;1209;62338;-80
2021/04/07 07:46:39;;;;;;;3.20;1.70;;;;;;;1.48;72.46;100376.69;115887;1209;62665;-80
2021/04/07 07:49:17;;;;;;;4.73;1.20;;;;;;;1.56;72.31;100376.89;115901;1209;62513;-80
2021/04/07 07:51:46;;;;;;;4.73;1.03;;;;;;;1.59;73.24;100381.89;115834;1209;63973;-80
2021/04/07 07:54:15;;;;;;;3.97;0.93;;;;;;;1.69;72.70;100381.13;115880;1209;63177;-77
2021/04/07 07:56:42;;;;;;;2.27;1.57;;;;;;;1.73;72.05;100396.44;115841;1208;62532;-78
2021/04/07 07:59:09;;;;;;;2.60;0.80;;;;;;;1.78;71.51;100394.27;115858;1209;62808;-78
2021/04/07 08:01:45;;;;;;;5.77;1.93;;;;;;;1.80;72.24;100383.69;115834;1209;62839;-78
2021/04/07 08:04:12;;;;;;;4.67;1.57;;;;;;;1.89;72.31;100380.34;115876;1209;62226;-78
2021/04/07 08:06:40;;;;;;;3.83;1.40;;;;;;;2.00;72.80;100376.83;115819;1209;63206;-80
2021/04/07 08:09:07;;;;;;;5.75;1.30;;;;;;;2.10;72.05;100382.93;115888;1209;62374;-78
2021/04/07 08:11:34;;;;;;;2.57;1.20;;;;;;;2.21;71.66;100389.88;115818;1209;62560;-79
2021/04/07 08:14:02;;;;;;;3.27;1.50;;;;;;;2.31;71.47;100388.16;115830;1209;62564;-79
2021/04/07 08:16:31;;;;;;;2.33;1.20;;;;;;;2.39;71.41;100387.52;115829;1209;62295;-78
2021/04/07 08:18:59;;;;;;;5.70;1.20;;;;;;;2.51;70.85;100401.34;115915;1208;63220;-78
2021/04/07 08:21:27;;;;;;;12.70;4.03;;;;;;;2.59;70.38;100388.44;115792;1209;62273;-78
2021/04/07 08:24:00;;;;;;;4.47;2.00;;;;;;;2.66;70.06;100394.83;115855;1209;62210;-77
2021/04/07 08:26:29;;;;;;;4.10;1.70;;;;;;;2.69;69.75;100397.17;115806;1209;62554;-79
2021/04/07 08:28:56;;;;;;;3.25;1.30;;;;;;;2.74;69.34;100386.30;115900;1209;62159;-78
2021/04/07 08:31:27;;;;;;;2.27;0.93;;;;;;;2.73;69.65;100409.05;115893;1209;62823;-77
2021/04/07 08:33:57;;;;;;;5.17;1.30;;;;;;;2.81;70.07;100403.98;115894;1209;62312;-78
2021/04/07 08:36:29;;;;;;;7.17;1.83;;;;;;;2.91;70.34;100392.70;115832;1209;62266;-77
2021/04/07 08:39:10;;;;;;;2.13;1.00;;;;;;;2.88;69.95;100404.28;115891;1209;62374;-78
2021/04/07 08:41:38;;;;;;;3.53;1.10;;;;;;;2.86;68.72;100390.48;115782;1209;62862;-80
2021/04/07 08:44:06;;;;;;;4.27;1.03;;;;;;;2.81;69.07;100398.75;115889;1209;63545;-80
2021/04/07 08:46:50;;;;;;;4.63;1.47;;;;;;;2.78;69.67;100398.17;115778;1209;62755;-79
2021/04/07 08:49:41;;;;;;;4.90;1.80;;;;;;;2.79;70.02;100407.70;115886;1209;62080;-78
2021/04/07 08:52:24;;;;;;;5.30;1.57;;;;;;;2.83;69.94;100396.83;115898;1209;63010;-79
2021/04/07 08:54:59;;;;;;;3.70;2.20;;;;;;;2.86;70.08;100395.73;115864;1207;62161;-79
2021/04/07 08:57:29;;;;;;;2.70;1.00;;;;;;;2.91;70.05;100406.66;115874;1209;62224;-79
2021/04/07 08:59:58;;;;;;;3.03;1.57;;;;;;;3.05;70.25;100410.69;115935;1209;62341;-79
2021/04/07 09:02:25;;;;;;;1.90;1.40;;;;;;;3.09;68.86;100406.84;115890;1209;62092;-80
2021/04/07 09:05:02;;;;;;;2.47;1.43;;;;;;;3.16;68.76;100404.51;115883;1209;62056;-79
2021/04/07 09:07:42;;;;;;;5.07;2.30;;;;;;;3.16;69.11;100397.47;115928;1209;62435;-79
2021/04/07 09:10:11;;;;;;;3.67;1.60;;;;;;;3.30;68.38;100396.27;115838;1209;62392;-78
2021/04/07 09:12:47;;;;;;;2.00;1.20;;;;;;;3.37;67.98;100393.94;115848;1209;62213;-77
2021/04/07 09:15:24;;;;;;;3.47;1.40;;;;;;;3.36;68.60;100397.50;115867;1209;62207;-79
2021/04/07 09:17:53;;;;;;;5.13;1.60;;;;;;;3.34;68.36;100395.04;115814;1209;62655;-79
2021/04/07 09:20:41;;;;;;;3.43;1.83;;;;;;;3.31;68.61;100394.47;115790;1209;62700;-79
2021/04/07 09:23:24;;;;;;;3.30;1.83;;;;;;;3.23;69.22;100419.58;115844;1209;62918;-79
2021/04/07 09:25:56;;;;;;;2.83;1.50;;;;;;;3.22;69.86;100390.88;115856;1209;62566;-80
2021/04/07 09:28:32;;;;;;;3.10;1.80;;;;;;;3.32;69.40;100389.10;115813;1209;62540;-80
2021/04/07 09:31:14;;;;;;;2.83;1.70;;;;;;;3.44;69.32;100395.03;115772;1209;62587;-79
2021/04/07 09:33:53;;;;;;;2.50;1.73;;;;;;;3.59;69.29;100398.09;115897;1209;62346;-79
2021/04/07 09:36:34;;;;;;;3.90;2.17;;;;;;;3.66;68.36;100401.84;115759;1209;63051;-80
2021/04/07 09:39:06;;;;;;;5.83;2.50;;;;;;;3.67;68.38;100406.11;115742;1209;63189;-81
2021/04/07 09:41:35;;;;;;;3.17;1.73;;;;;;;3.63;67.74;100392.45;115688;1209;62470;-78
2021/04/07 09:44:05;;;;;;;3.97;2.13;;;;;;;3.45;67.85;100413.27;115871;1209;62365;-79
2021/04/07 09:46:33;;;;;;;2.10;1.57;;;;;;;3.33;67.73;100419.58;115813;1209;62461;-78
2021/04/07 09:49:05;;;;;;;3.80;2.00;;;;;;;3.28;68.21;100413.11;115871;1209;62832;-79
2021/04/07 09:51:36;;;;;;;3.93;2.40;;;;;;;3.19;68.07;100407.70;115782;1209;63472;-79
2021/04/07 09:54:19;;;;;;;3.90;2.20;;;;;;;3.10;68.95;100423.38;115782;1209;62478;-78
2021/04/07 09:56:55;;;;;;;3.55;2.30;;;;;;;3.08;68.52;100407.78;115849;1209;62560;-79
2021/04/07 09:59:49;;;;;;;5.13;3.10;;;;;;;3.04;68.57;100430.01;115743;1209;62667;-77
2021/04/07 10:02:26;;;;;;;6.07;3.50;;;;;;;3.03;69.05;100415.23;115772;1209;64352;-78
2021/04/07 10:04:54;;;;;;;5.85;3.65;;;;;;;3.06;69.64;100428.91;115871;1209;62676;-78
2021/04/07 10:07:27;;;;;;;5.43;3.47;;;;;;;3.10;69.63;100415.52;115886;1209;62182;-78
2021/04/07 10:09:56;;;;;;;7.87;4.37;;;;;;;3.17;68.95;100425.35;115858;1209;62146;-78
2021/04/07 10:12:27;;;;;;;6.50;4.75;;;;;;;3.23;69.37;100414.33;115889;1209;62509;-79
2021/04/07 10:14:59;;;;;;;6.37;3.30;;;;;;;3.38;69.85;100406.06;115920;1209;62949;-81
2021/04/07 10:17:39;;;;;;;7.80;5.17;;;;;;;3.46;68.34;100412.31;115891;1209;62431;-77
2021/04/07 10:20:08;;;;;;;6.27;3.57;;;;;;;3.51;68.16;100417.15;115974;1209;62408;-77
2021/04/07 10:22:36;;;;;;;9.10;6.10;;;;;;;3.51;68.53;100422.39;115964;1209;62313;-78
2021/04/07 10:25:13;;;;;;;8.60;4.53;;;;;;;3.44;67.90;100421.25;115913;1209;62274;-77
2021/04/07 10:27:41;;;;;;;9.57;5.53;;;;;;;3.33;67.84;100411.72;115925;1209;62332;-77
2021/04/07 10:30:14;;;;;;;7.03;4.30;;;;;;;3.26;67.47;100424.53;115909;1209;62591;-78
2021/04/07 10:32:46;;;;;;;7.10;4.20;;;;;;;3.16;68.78;100423.68;115916;1209;62225;-77
2021/04/07 10:35:27;;;;;;;6.17;4.73;;;;;;;3.14;68.60;100441.33;115920;1209;62539;-76
2021/04/07 10:38:01;;;;;;;7.20;4.77;;;;;;;3.11;67.65;100423.27;115882;1209;62040;-76
2021/04/07 10:40:30;;;;;;;7.60;4.73;;;;;;;3.08;68.80;100423.51;115924;1209;62738;-78
2021/04/07 10:42:57;;;;;;;8.20;5.63;;;;;;;3.22;69.29;100422.33;115852;1209;62261;-76
2021/04/07 10:45:27;;;;;;;8.57;5.67;;;;;;;3.40;68.04;100420.72;115833;1209;62379;-79
2021/04/07 10:48:04;;;;;;;11.27;5.73;;;;;;;3.54;67.78;100422.11;115910;1208;61962;-78
2021/04/07 10:50:33;;;;;;;7.43;5.33;;;;;;;3.57;67.30;100418.38;115907;1209;62241;-78
2021/04/07 10:53:00;;;;;;;8.87;5.20;;;;;;;3.59;66.93;100427.79;115885;1209;62344;-78
2021/04/07 10:55:29;;;;;;;6.20;3.67;;;;;;;3.60;67.24;100425.98;115878;1209;62263;-78
2021/04/07 10:57:59;;;;;;;6.37;4.33;;;;;;;3.54;66.83;100426.53;115782;1209;62411;-79
2021/04/07 11:00:32;;;;;;;6.47;3.97;;;;;;;3.54;67.37;100421.28;115864;1209;62388;-78
2021/04/07 11:02:59;;;;;;;5.40;3.40;;;;;;;3.55;67.69;100429.02;115883;1209;62463;-78
2021/04/07 11:05:47;;;;;;;6.00;4.43;;;;;;;3.62;67.37;100430.13;115855;1209;62272;-78
2021/04/07 11:08:15;;;;;;;7.40;4.85;;;;;;;3.70;67.99;100452.22;115843;1209;62111;-78
2021/04/07 11:10:48;;;;;;;8.70;4.75;;;;;;;3.78;67.53;100434.00;115871;1209;62222;-77
2021/04/07 11:13:17;;;;;;;5.97;3.97;;;;;;;3.89;66.95;100441.77;115753;1209;63300;-78
2021/04/07 11:15:44;;;;;;;5.33;3.83;;;;;;;4.02;66.04;100434.43;115898;1209;63496;-79
2021/04/07 11:18:11;;;;;;;6.67;5.00;;;;;;;4.26;65.46;100436.61;115855;1209;62625;-78
2021/04/07 11:20:40;;;;;;;6.53;3.53;;;;;;;4.43;65.82;100421.93;115771;1209;62399;-78
2021/04/07 11:23:07;;;;;;;7.17;4.90;;;;;;;4.65;65.76;100422.56;115797;1209;62895;-78
2021/04/07 11:25:39;;;;;;;5.67;3.73;;;;;;;4.85;64.24;100434.67;115840;1209;62207;-78
2021/04/07 11:28:15;;;;;;;5.55;3.75;;;;;;;4.94;64.65;100432.97;115869;1209;62097;-79
2021/04/07 11:30:55;;;;;;;6.07;3.40;;;;;;;4.89;64.53;100424.70;115884;1209;63350;-79
2021/04/07 11:33:25;;;;;;;5.50;3.60;;;;;;;4.85;64.55;100418.91;115837;1209;62964;-79